createdAt,value
2022-10-17T00:00:37.823Z,1006.95
2022-10-17T00:01:37.870Z,1006.94
2022-10-17T00:02:37.805Z,1006.98
2022-10-17T00:03:37.833Z,1006.96
2022-10-17T00:04:37.793Z,1006.98
2022-10-17T00:05:37.764Z,1006.98
2022-10-17T00:06:37.772Z,1006.97
2022-10-17T00:07:37.746Z,1006.96
2022-10-17T00:08:37.733Z,1006.95
2022-10-17T00:09:37.716Z,1006.98
2022-10-17T00:10:37.705Z,1006.97
2022-10-17T00:11:37.703Z,1006.98
2022-10-17T00:12:37.663Z,1007.02
2022-10-17T00:13:37.674Z,1006.99
2022-10-17T00:14:37.654Z,1006.99
2022-10-17T00:15:37.635Z,1007.02
2022-10-17T00:16:37.624Z,1007.04
2022-10-17T00:17:37.631Z,1007.00
2022-10-17T00:18:37.612Z,1007.06
2022-10-17T00:19:37.586Z,1007.05
2022-10-17T00:20:37.563Z,1007.07
2022-10-17T00:21:37.566Z,1007.09
2022-10-17T00:22:37.553Z,1007.05
2022-10-17T00:23:37.581Z,1007.06
2022-10-17T00:24:37.509Z,1007.09
2022-10-17T00:25:37.502Z,1007.05
2022-10-17T00:26:37.481Z,1007.02
2022-10-17T00:27:37.482Z,1007.03
2022-10-17T00:28:37.503Z,1007.01
2022-10-17T00:29:37.459Z,1007.03
2022-10-17T00:30:37.432Z,1007.05
2022-10-17T00:31:37.425Z,1007.00
2022-10-17T00:32:37.413Z,1007.04
2022-10-17T00:33:37.402Z,1007.02
2022-10-17T00:34:37.382Z,1007.11
2022-10-17T00:35:37.392Z,1007.07
2022-10-17T00:36:37.350Z,1007.06
2022-10-17T00:37:37.342Z,1007.13
2022-10-17T00:38:37.333Z,1007.13
2022-10-17T00:39:37.321Z,1007.10
2022-10-17T00:40:37.300Z,1007.10
2022-10-17T00:41:37.306Z,1007.09
2022-10-17T00:42:37.270Z,1007.04
2022-10-17T00:43:37.269Z,1007.09
2022-10-17T00:44:37.249Z,1007.14
2022-10-17T00:45:37.231Z,1007.14
2022-10-17T00:46:37.211Z,1007.15
2022-10-17T00:47:37.220Z,1007.21
2022-10-17T00:48:37.219Z,1007.21
2022-10-17T00:49:37.182Z,1007.26
2022-10-17T00:50:37.171Z,1007.28
2022-10-17T00:51:37.152Z,1007.25
2022-10-17T00:52:37.149Z,1007.28
2022-10-17T00:53:37.139Z,1007.26
2022-10-17T00:54:37.143Z,1007.29
2022-10-17T00:55:37.106Z,1007.29
2022-10-17T00:56:37.100Z,1007.29
2022-10-17T00:57:37.070Z,1007.25
2022-10-17T00:58:37.069Z,1007.23
2022-10-17T00:59:37.066Z,1007.17
2022-10-17T01:00:37.070Z,1007.22
2022-10-17T01:01:37.034Z,1007.23
2022-10-17T01:02:37.009Z,1007.23
2022-10-17T01:03:37.024Z,1007.23
2022-10-17T01:04:36.999Z,1007.25
2022-10-17T01:05:36.978Z,1007.24
2022-10-17T01:06:36.959Z,1007.25
2022-10-17T01:07:37.385Z,1007.24
2022-10-17T01:08:36.942Z,1007.26
2022-10-17T01:09:36.920Z,1007.26
2022-10-17T01:10:36.908Z,1007.22
2022-10-17T01:11:36.889Z,1007.27
2022-10-17T01:12:36.868Z,1007.26
2022-10-17T01:13:36.890Z,1007.25
2022-10-17T01:14:36.859Z,1007.26
2022-10-17T01:15:36.839Z,1007.29
2022-10-17T01:16:36.819Z,1007.29
2022-10-17T01:17:36.811Z,1007.26
2022-10-17T01:18:36.799Z,1007.25
2022-10-17T01:19:36.778Z,1007.23
2022-10-17T01:20:36.785Z,1007.18
2022-10-17T01:21:36.800Z,1007.18
2022-10-17T01:22:36.735Z,1007.15
2022-10-17T01:23:36.754Z,1007.16
2022-10-17T01:24:36.707Z,1007.18
2022-10-17T01:25:36.699Z,1007.14
2022-10-17T01:26:36.685Z,1007.13
2022-10-17T01:27:36.672Z,1007.17
2022-10-17T01:28:36.741Z,1007.10
2022-10-17T01:29:36.657Z,1007.09
2022-10-17T01:30:36.635Z,1007.14
2022-10-17T01:31:36.618Z,1007.10
2022-10-17T01:32:36.606Z,1007.12
2022-10-17T01:33:36.596Z,1007.15
2022-10-17T01:34:36.573Z,1007.15
2022-10-17T01:35:36.576Z,1007.16
2022-10-17T01:36:36.549Z,1007.14
2022-10-17T01:37:36.540Z,1007.13
2022-10-17T01:38:36.559Z,1007.11
2022-10-17T01:39:38.402Z,1007.04
2022-10-17T01:40:36.490Z,1007.05
2022-10-17T01:41:36.486Z,1007.11
2022-10-17T01:42:36.470Z,1007.09
2022-10-17T01:43:36.486Z,1007.05
2022-10-17T01:44:36.439Z,1007.12
2022-10-17T01:45:36.435Z,1007.08
2022-10-17T01:46:36.428Z,1007.07
2022-10-17T01:47:36.408Z,1007.04
2022-10-17T01:48:36.397Z,1007.06
2022-10-17T01:49:36.386Z,1006.99
2022-10-17T01:50:36.369Z,1007.06
2022-10-17T01:51:36.352Z,1007.00
2022-10-17T01:52:36.362Z,1007.04
2022-10-17T01:53:36.339Z,1007.04
2022-10-17T01:54:36.318Z,1007.00
2022-10-17T01:55:36.299Z,1007.06
2022-10-17T01:56:36.287Z,1007.02
2022-10-17T01:57:36.295Z,1007.04
2022-10-17T01:58:36.254Z,1007.03
2022-10-17T01:59:36.247Z,1007.10
2022-10-17T02:00:36.227Z,1007.04
2022-10-17T02:01:36.281Z,1007.06
2022-10-17T02:02:36.207Z,1007.06
2022-10-17T02:03:36.189Z,1007.08
2022-10-17T02:04:36.178Z,1007.09
2022-10-17T02:05:36.169Z,1007.06
2022-10-17T02:06:36.154Z,1007.03
2022-10-17T02:07:36.157Z,1007.05
2022-10-17T02:08:36.127Z,1007.09
2022-10-17T02:09:36.108Z,1007.09
2022-10-17T02:10:36.086Z,1007.10
2022-10-17T02:11:36.088Z,1007.10
2022-10-17T02:12:36.077Z,1007.05
2022-10-17T02:13:36.079Z,1007.04
2022-10-17T02:14:36.040Z,1007.05
2022-10-17T02:15:36.046Z,1007.07
2022-10-17T02:16:36.008Z,1007.10
2022-10-17T02:17:36.017Z,1007.07
2022-10-17T02:18:36.002Z,1007.04
2022-10-17T02:19:35.979Z,1007.07
2022-10-17T02:20:35.967Z,1007.09
2022-10-17T02:21:35.948Z,1007.04
2022-10-17T02:22:36.040Z,1007.12
2022-10-17T02:23:35.927Z,1007.12
2022-10-17T02:24:35.911Z,1007.09
2022-10-17T02:25:35.897Z,1007.09
2022-10-17T02:26:35.886Z,1007.04
2022-10-17T02:27:35.886Z,1007.06
2022-10-17T02:28:35.919Z,1007.09
2022-10-17T02:29:35.866Z,1007.07
2022-10-17T02:30:35.834Z,1007.05
2022-10-17T02:31:35.826Z,1007.15
2022-10-17T02:32:35.836Z,1007.12
2022-10-17T02:33:35.816Z,1007.16
2022-10-17T02:34:35.776Z,1007.12
2022-10-17T02:35:35.775Z,1007.15
2022-10-17T02:36:35.763Z,1007.15
2022-10-17T02:37:35.755Z,1007.12
2022-10-17T02:38:35.718Z,1007.16
2022-10-17T02:39:35.715Z,1007.20
2022-10-17T02:40:35.727Z,1007.19
2022-10-17T02:41:35.695Z,1007.18
2022-10-17T02:42:35.685Z,1007.18
2022-10-17T02:43:35.658Z,1007.18
2022-10-17T02:44:35.644Z,1007.18
2022-10-17T02:45:35.635Z,1007.21
2022-10-17T02:46:35.615Z,1007.18
2022-10-17T02:47:35.624Z,1007.16
2022-10-17T02:48:35.585Z,1007.20
2022-10-17T02:49:35.575Z,1007.20
2022-10-17T02:50:35.555Z,1007.18
2022-10-17T02:51:35.545Z,1007.14
2022-10-17T02:52:35.556Z,1007.17
2022-10-17T02:53:35.526Z,1007.20
2022-10-17T02:54:35.531Z,1007.13
2022-10-17T02:55:35.505Z,1007.18
2022-10-17T02:56:35.495Z,1007.15
2022-10-17T02:57:35.532Z,1007.18
2022-10-17T02:58:35.455Z,1007.15
2022-10-17T02:59:35.458Z,1007.17
2022-10-17T03:00:35.433Z,1007.20
2022-10-17T03:01:35.461Z,1007.20
2022-10-17T03:02:35.405Z,1007.21
2022-10-17T03:03:35.394Z,1007.24
2022-10-17T03:04:35.376Z,1007.28
2022-10-17T03:05:35.364Z,1007.25
2022-10-17T03:06:35.352Z,1007.27
2022-10-17T03:07:35.343Z,1007.28
2022-10-17T03:08:35.447Z,1007.30
2022-10-17T03:09:35.314Z,1007.33
2022-10-17T03:10:35.293Z,1007.34
2022-10-17T03:11:35.285Z,1007.31
2022-10-17T03:12:35.275Z,1007.34
2022-10-17T03:13:38.989Z,1007.33
2022-10-17T03:14:35.243Z,1007.28
2022-10-17T03:15:35.420Z,1007.30
2022-10-17T03:16:35.454Z,1007.26
2022-10-17T03:17:35.262Z,1007.24
2022-10-17T03:18:35.204Z,1007.24
2022-10-17T03:19:35.178Z,1007.25
2022-10-17T03:20:35.175Z,1007.26
2022-10-17T03:21:35.153Z,1007.19
2022-10-17T03:22:35.183Z,1007.14
2022-10-17T03:23:35.122Z,1007.22
2022-10-17T03:24:35.143Z,1007.21
2022-10-17T03:25:35.127Z,1007.20
2022-10-17T03:26:35.119Z,1007.27
2022-10-17T03:27:35.085Z,1007.25
2022-10-17T03:28:35.103Z,1007.26
2022-10-17T03:29:35.041Z,1007.28
2022-10-17T03:30:35.033Z,1007.29
2022-10-17T03:31:35.020Z,1007.36
2022-10-17T03:32:35.011Z,1007.30
2022-10-17T03:33:34.990Z,1007.27
2022-10-17T03:34:34.981Z,1007.25
2022-10-17T03:35:35.047Z,1007.23
2022-10-17T03:36:34.961Z,1007.20
2022-10-17T03:37:34.942Z,1007.20
2022-10-17T03:38:34.939Z,1007.24
2022-10-17T03:39:34.902Z,1007.26
2022-10-17T03:40:34.903Z,1007.22
2022-10-17T03:41:34.881Z,1007.23
2022-10-17T03:42:34.880Z,1007.24
2022-10-17T03:43:34.858Z,1007.28
2022-10-17T03:44:34.841Z,1007.24
2022-10-17T03:45:34.840Z,1007.24
2022-10-17T03:46:34.822Z,1007.30
2022-10-17T03:47:34.811Z,1007.30
2022-10-17T03:48:34.799Z,1007.31
2022-10-17T03:49:34.771Z,1007.31
2022-10-17T03:50:34.761Z,1007.29
2022-10-17T03:51:34.750Z,1007.37
2022-10-17T03:52:34.749Z,1007.35
2022-10-17T03:53:34.732Z,1007.34
2022-10-17T03:54:34.709Z,1007.37
2022-10-17T03:55:34.692Z,1007.36
2022-10-17T03:56:34.689Z,1007.40
2022-10-17T03:57:34.678Z,1007.41
2022-10-17T03:58:34.661Z,1007.44
2022-10-17T03:59:34.639Z,1007.44
2022-10-17T04:00:34.629Z,1007.47
2022-10-17T04:01:34.752Z,1007.47
2022-10-17T04:02:34.612Z,1007.48
2022-10-17T04:03:34.606Z,1007.46
2022-10-17T04:04:34.578Z,1007.53
2022-10-17T04:05:34.559Z,1007.50
2022-10-17T04:06:34.550Z,1007.52
2022-10-17T04:07:34.541Z,1007.54
2022-10-17T04:08:34.558Z,1007.52
2022-10-17T04:09:34.499Z,1007.55
2022-10-17T04:10:34.498Z,1007.51
2022-10-17T04:11:34.480Z,1007.50
2022-10-17T04:12:34.478Z,1007.52
2022-10-17T04:13:34.456Z,1007.51
2022-10-17T04:14:34.439Z,1007.51
2022-10-17T04:15:34.427Z,1007.44
2022-10-17T04:16:34.425Z,1007.50
2022-10-17T04:17:37.334Z,1007.52
2022-10-17T04:18:34.396Z,1007.57
2022-10-17T04:19:34.401Z,1007.51
2022-10-17T04:20:34.368Z,1007.55
2022-10-17T04:21:34.348Z,1007.54
2022-10-17T04:22:34.358Z,1007.52
2022-10-17T04:23:34.319Z,1007.52
2022-10-17T04:24:34.306Z,1007.54
2022-10-17T04:25:36.650Z,1007.53
2022-10-17T04:26:34.290Z,1007.57
2022-10-17T04:27:34.276Z,1007.51
2022-10-17T04:28:34.343Z,1007.50
2022-10-17T04:29:34.242Z,1007.50
2022-10-17T04:30:34.238Z,1007.50
2022-10-17T04:31:34.226Z,1007.53
2022-10-17T04:32:34.218Z,1007.54
2022-10-17T04:33:34.187Z,1007.55
2022-10-17T04:34:34.177Z,1007.53
2022-10-17T04:35:34.166Z,1007.52
2022-10-17T04:36:34.149Z,1007.56
2022-10-17T04:37:34.145Z,1007.55
2022-10-17T04:38:34.138Z,1007.54
2022-10-17T04:39:34.106Z,1007.52
2022-10-17T04:40:34.099Z,1007.55
2022-10-17T04:41:34.078Z,1007.52
2022-10-17T04:42:34.105Z,1007.53
2022-10-17T04:43:34.074Z,1007.52
2022-10-17T04:44:34.057Z,1007.54
2022-10-17T04:45:34.025Z,1007.50
2022-10-17T04:46:34.026Z,1007.51
2022-10-17T04:47:34.018Z,1007.52
2022-10-17T04:48:33.987Z,1007.55
2022-10-17T04:49:33.996Z,1007.51
2022-10-17T04:50:33.958Z,1007.51
2022-10-17T04:51:33.944Z,1007.57
2022-10-17T04:52:33.946Z,1007.55
2022-10-17T04:53:33.921Z,1007.55
2022-10-17T04:54:33.907Z,1007.56
2022-10-17T04:55:33.896Z,1007.54
2022-10-17T04:56:33.881Z,1007.54
2022-10-17T04:57:33.873Z,1007.54
2022-10-17T04:58:33.857Z,1007.57
2022-10-17T04:59:33.835Z,1007.60
2022-10-17T05:00:33.854Z,1007.56
2022-10-17T05:01:33.823Z,1007.50
2022-10-17T05:02:33.816Z,1007.52
2022-10-17T05:03:33.785Z,1007.57
2022-10-17T05:04:33.781Z,1007.54
2022-10-17T05:05:33.775Z,1007.57
2022-10-17T05:06:33.765Z,1007.54
2022-10-17T05:07:33.750Z,1007.61
2022-10-17T05:08:33.725Z,1007.57
2022-10-17T05:09:33.715Z,1007.60
2022-10-17T05:10:33.694Z,1007.59
2022-10-17T05:11:33.700Z,1007.57
2022-10-17T05:12:33.663Z,1007.63
2022-10-17T05:13:33.653Z,1007.66
2022-10-17T05:14:33.701Z,1007.65
2022-10-17T05:15:33.623Z,1007.60
2022-10-17T05:16:33.643Z,1007.61
2022-10-17T05:17:33.603Z,1007.60
2022-10-17T05:18:33.637Z,1007.59
2022-10-17T05:19:33.576Z,1007.62
2022-10-17T05:20:33.566Z,1007.63
2022-10-17T05:22:36.160Z,1007.67
2022-10-17T05:23:33.515Z,1007.66
2022-10-17T05:24:33.512Z,1007.68
2022-10-17T05:25:33.542Z,1007.66
2022-10-17T05:26:33.512Z,1007.71
2022-10-17T05:27:33.480Z,1007.71
2022-10-17T05:28:33.569Z,1007.74
2022-10-17T05:29:33.440Z,1007.78
2022-10-17T05:30:36.739Z,1007.82
2022-10-17T05:31:33.423Z,1007.79
2022-10-17T05:32:33.405Z,1007.79
2022-10-17T05:33:33.390Z,1007.83
2022-10-17T05:34:33.387Z,1007.84
2022-10-17T05:35:33.393Z,1007.83
2022-10-17T05:36:33.353Z,1007.76
2022-10-17T05:37:33.330Z,1007.83
2022-10-17T05:38:33.323Z,1007.80
2022-10-17T05:39:33.306Z,1007.79
2022-10-17T05:40:33.293Z,1007.86
2022-10-17T05:41:33.291Z,1007.82
2022-10-17T05:42:33.599Z,1007.83
2022-10-17T05:43:33.253Z,1007.88
2022-10-17T05:44:33.245Z,1007.82
2022-10-17T05:45:33.236Z,1007.86
2022-10-17T05:46:33.221Z,1007.80
2022-10-17T05:47:33.354Z,1007.76
2022-10-17T05:48:33.218Z,1007.84
2022-10-17T05:49:45.007Z,1007.83
2022-10-17T05:50:34.182Z,1007.87
2022-10-17T05:51:33.339Z,1007.84
2022-10-17T05:52:33.256Z,1007.85
2022-10-17T05:53:33.115Z,1007.88
2022-10-17T05:54:33.110Z,1007.84
2022-10-17T05:55:33.101Z,1007.86
2022-10-17T05:56:33.091Z,1007.85
2022-10-17T05:57:33.062Z,1007.88
2022-10-17T05:58:49.263Z,1007.89
2022-10-17T05:59:34.031Z,1007.88
2022-10-17T06:00:33.084Z,1007.85
2022-10-17T06:01:33.057Z,1007.89
2022-10-17T06:02:33.580Z,1007.93
2022-10-17T06:03:32.985Z,1007.87
2022-10-17T06:04:32.980Z,1007.90
2022-10-17T06:05:32.961Z,1007.92
2022-10-17T06:06:32.962Z,1007.87
2022-10-17T06:07:32.990Z,1007.92
2022-10-17T06:08:32.930Z,1007.91
2022-10-17T06:09:32.947Z,1007.93
2022-10-17T06:10:32.919Z,1007.96
2022-10-17T06:11:32.892Z,1007.88
2022-10-17T06:12:32.870Z,1007.93
2022-10-17T06:13:32.872Z,1007.95
2022-10-17T06:14:32.842Z,1008.02
2022-10-17T06:15:32.838Z,1007.97
2022-10-17T06:16:32.850Z,1008.01
2022-10-17T06:17:32.819Z,1007.98
2022-10-17T06:18:32.870Z,1008.03
2022-10-17T06:19:32.790Z,1008.00
2022-10-17T06:20:32.759Z,1008.00
2022-10-17T06:21:32.749Z,1008.03
2022-10-17T06:22:32.747Z,1008.04
2022-10-17T06:23:32.719Z,1008.07
2022-10-17T06:24:32.711Z,1008.03
2022-10-17T06:25:32.688Z,1008.03
2022-10-17T06:26:32.723Z,1008.00
2022-10-17T06:27:32.669Z,1008.03
2022-10-17T06:28:32.762Z,1007.98
2022-10-17T06:29:32.650Z,1007.98
2022-10-17T06:30:32.636Z,1008.01
2022-10-17T06:31:32.658Z,1008.00
2022-10-17T06:32:32.718Z,1008.01
2022-10-17T06:33:32.588Z,1007.99
2022-10-17T06:34:32.583Z,1007.98
2022-10-17T06:35:32.568Z,1008.03
2022-10-17T06:36:32.579Z,1007.99
2022-10-17T06:37:35.564Z,1008.05
2022-10-17T06:38:32.519Z,1008.07
2022-10-17T06:39:32.506Z,1008.07
2022-10-17T06:40:32.637Z,1008.08
2022-10-17T06:41:32.646Z,1008.12
2022-10-17T06:42:32.487Z,1008.13
2022-10-17T06:43:32.457Z,1008.15
2022-10-17T06:44:32.437Z,1008.17
2022-10-17T06:45:32.437Z,1008.17
2022-10-17T06:46:32.445Z,1008.18
2022-10-17T06:47:32.733Z,1008.22
2022-10-17T06:48:32.398Z,1008.19
2022-10-17T06:49:32.369Z,1008.22
2022-10-17T06:50:32.357Z,1008.28
2022-10-17T06:51:32.376Z,1008.30
2022-10-17T06:52:32.337Z,1008.28
2022-10-17T06:53:32.316Z,1008.27
2022-10-17T06:54:32.337Z,1008.27
2022-10-17T06:55:32.334Z,1008.32
2022-10-17T06:56:32.322Z,1008.32
2022-10-17T06:57:32.512Z,1008.33
2022-10-17T06:58:32.258Z,1008.37
2022-10-17T06:59:32.266Z,1008.34
2022-10-17T07:00:32.283Z,1008.40
2022-10-17T07:01:32.226Z,1008.44
2022-10-17T07:02:32.520Z,1008.41
2022-10-17T07:03:32.193Z,1008.46
2022-10-17T07:04:32.175Z,1008.46
2022-10-17T07:05:32.175Z,1008.43
2022-10-17T07:06:32.168Z,1008.47
2022-10-17T07:07:32.316Z,1008.49
2022-10-17T07:08:32.135Z,1008.47
2022-10-17T07:09:32.105Z,1008.49
2022-10-17T07:10:32.096Z,1008.48
2022-10-17T07:11:32.104Z,1008.44
2022-10-17T07:12:32.092Z,1008.50
2022-10-17T07:13:36.755Z,1008.46
2022-10-17T07:14:33.045Z,1008.47
2022-10-17T07:15:32.024Z,1008.49
2022-10-17T07:16:32.025Z,1008.44
2022-10-17T07:17:32.285Z,1008.45
2022-10-17T07:18:31.988Z,1008.46
2022-10-17T07:19:31.980Z,1008.46
2022-10-17T07:20:31.983Z,1008.47
2022-10-17T07:21:35.244Z,1008.52
2022-10-17T07:22:32.936Z,1008.47
2022-10-17T07:23:31.915Z,1008.43
2022-10-17T07:24:31.907Z,1008.48
2022-10-17T07:25:34.136Z,1008.42
2022-10-17T07:26:31.895Z,1008.45
2022-10-17T07:27:32.138Z,1008.43
2022-10-17T07:28:31.943Z,1008.47
2022-10-17T07:29:31.885Z,1008.47
2022-10-17T07:30:31.851Z,1008.49
2022-10-17T07:31:31.850Z,1008.50
2022-10-17T07:32:31.807Z,1008.57
2022-10-17T07:33:31.804Z,1008.51
2022-10-17T07:34:31.784Z,1008.49
2022-10-17T07:35:31.754Z,1008.50
2022-10-17T07:36:31.764Z,1008.50
2022-10-17T07:37:32.095Z,1008.52
2022-10-17T07:38:31.734Z,1008.54
2022-10-17T07:39:31.713Z,1008.51
2022-10-17T07:40:31.714Z,1008.56
2022-10-17T07:41:31.696Z,1008.58
2022-10-17T07:42:31.723Z,1008.59
2022-10-17T07:43:31.668Z,1008.61
2022-10-17T07:44:31.654Z,1008.58
2022-10-17T07:45:31.643Z,1008.61
2022-10-17T07:46:31.615Z,1008.58
2022-10-17T07:47:32.049Z,1008.57
2022-10-17T07:48:35.315Z,1008.59
2022-10-17T07:49:31.584Z,1008.60
2022-10-17T07:50:31.564Z,1008.62
2022-10-17T07:51:31.546Z,1008.62
2022-10-17T07:52:31.832Z,1008.57
2022-10-17T07:53:31.519Z,1008.66
2022-10-17T07:54:31.508Z,1008.59
2022-10-17T07:55:31.514Z,1008.57
2022-10-17T07:56:31.486Z,1008.58
2022-10-17T07:57:31.484Z,1008.60
2022-10-17T07:58:31.455Z,1008.59
2022-10-17T07:59:31.462Z,1008.62
2022-10-17T08:00:31.509Z,1008.65
2022-10-17T08:01:31.425Z,1008.61
2022-10-17T08:02:31.805Z,1008.63
2022-10-17T08:03:31.385Z,1008.59
2022-10-17T08:04:31.375Z,1008.65
2022-10-17T08:05:31.365Z,1008.62
2022-10-17T08:06:31.393Z,1008.62
2022-10-17T08:07:31.338Z,1008.68
2022-10-17T08:08:31.315Z,1008.65
2022-10-17T08:09:31.324Z,1008.65
2022-10-17T08:10:31.296Z,1008.65
2022-10-17T08:11:31.285Z,1008.64
2022-10-17T08:12:31.748Z,1008.61
2022-10-17T08:13:31.257Z,1008.64
2022-10-17T08:14:31.245Z,1008.62
2022-10-17T08:15:32.065Z,1008.60
2022-10-17T08:16:31.205Z,1008.63
2022-10-17T08:17:31.195Z,1008.58
2022-10-17T08:18:31.185Z,1008.62
2022-10-17T08:19:31.179Z,1008.57
2022-10-17T08:20:31.174Z,1008.62
2022-10-17T08:21:31.172Z,1008.61
2022-10-17T08:22:31.643Z,1008.61
2022-10-17T08:23:31.134Z,1008.63
2022-10-17T08:24:31.102Z,1008.66
2022-10-17T08:25:31.139Z,1008.67
2022-10-17T08:26:31.085Z,1008.65
2022-10-17T08:27:31.065Z,1008.65
2022-10-17T08:28:31.087Z,1008.69
2022-10-17T08:29:31.038Z,1008.66
2022-10-17T08:30:31.028Z,1008.68
2022-10-17T08:31:31.037Z,1008.75
2022-10-17T08:32:31.476Z,1008.69
2022-10-17T08:33:30.987Z,1008.65
2022-10-17T08:34:30.996Z,1008.72
2022-10-17T08:35:30.969Z,1008.74
2022-10-17T08:36:30.938Z,1008.73
2022-10-17T08:37:31.353Z,1008.75
2022-10-17T08:38:34.690Z,1008.79
2022-10-17T08:39:30.918Z,1008.68
2022-10-17T08:40:30.889Z,1008.69
2022-10-17T08:41:30.888Z,1008.71
2022-10-17T08:42:30.877Z,1008.71
2022-10-17T08:43:35.187Z,1008.66
2022-10-17T08:44:30.848Z,1008.66
2022-10-17T08:45:30.828Z,1008.68
2022-10-17T08:46:30.819Z,1008.71
2022-10-17T08:47:31.187Z,1008.72
2022-10-17T08:48:30.779Z,1008.70
2022-10-17T08:49:30.798Z,1008.64
2022-10-17T08:50:30.769Z,1008.61
2022-10-17T08:51:30.739Z,1008.62
2022-10-17T08:52:30.721Z,1008.60
2022-10-17T08:53:30.719Z,1008.64
2022-10-17T08:54:30.728Z,1008.58
2022-10-17T08:55:30.711Z,1008.52
2022-10-17T08:56:44.594Z,1008.61
2022-10-17T08:57:32.275Z,1008.56
2022-10-17T08:58:30.650Z,1008.56
2022-10-17T08:59:30.655Z,1008.57
2022-10-17T09:00:30.619Z,1008.52
2022-10-17T09:01:30.621Z,1008.53
2022-10-17T09:02:30.676Z,1008.54
2022-10-17T09:03:30.656Z,1008.48
2022-10-17T09:05:30.579Z,1008.47
2022-10-17T09:06:30.553Z,1008.49
2022-10-17T09:07:30.873Z,1008.47
2022-10-17T09:08:30.532Z,1008.47
2022-10-17T09:09:30.521Z,1008.43
2022-10-17T09:10:30.509Z,1008.40
2022-10-17T09:11:30.492Z,1008.41
2022-10-17T09:12:30.769Z,1008.46
2022-10-17T09:13:30.526Z,1008.46
2022-10-17T09:14:30.474Z,1008.44
2022-10-17T09:15:30.433Z,1008.48
2022-10-17T09:16:30.414Z,1008.46
2022-10-17T09:17:30.879Z,1008.44
2022-10-17T09:18:30.383Z,1008.48
2022-10-17T09:19:30.414Z,1008.46
2022-10-17T09:20:30.364Z,1008.47
2022-10-17T09:21:30.363Z,1008.43
2022-10-17T09:22:30.334Z,1008.42
2022-10-17T09:23:30.328Z,1008.40
2022-10-17T09:24:30.317Z,1008.35
2022-10-17T09:25:30.308Z,1008.36
2022-10-17T09:26:30.275Z,1008.36
2022-10-17T09:27:30.570Z,1008.35
2022-10-17T09:28:30.292Z,1008.40
2022-10-17T09:29:36.118Z,1008.37
2022-10-17T09:30:44.555Z,1008.35
2022-10-17T09:31:31.229Z,1008.37
2022-10-17T09:32:30.535Z,1008.33
2022-10-17T09:33:35.420Z,1008.31
2022-10-17T09:34:31.266Z,1008.27
2022-10-17T09:35:30.177Z,1008.29
2022-10-17T09:36:30.153Z,1008.28
2022-10-17T09:37:30.150Z,1008.25
2022-10-17T09:38:30.125Z,1008.29
2022-10-17T09:39:30.144Z,1008.29
2022-10-17T09:40:30.106Z,1008.23
2022-10-17T09:41:44.964Z,1008.22
2022-10-17T09:42:31.585Z,1008.22
2022-10-17T09:43:30.066Z,1008.18
2022-10-17T09:44:30.055Z,1008.19
2022-10-17T09:45:30.036Z,1008.18
2022-10-17T09:46:30.019Z,1008.22
2022-10-17T09:47:30.016Z,1008.21
2022-10-17T09:48:30.008Z,1008.20
2022-10-17T09:49:29.997Z,1008.19
2022-10-17T09:50:29.987Z,1008.18
2022-10-17T09:51:29.970Z,1008.18
2022-10-17T09:52:30.282Z,1008.13
2022-10-17T09:53:30.010Z,1008.14
2022-10-17T09:54:29.936Z,1008.13
2022-10-17T09:55:29.900Z,1008.14
2022-10-17T09:56:29.888Z,1008.13
2022-10-17T09:57:29.900Z,1008.15
2022-10-17T09:58:29.859Z,1008.17
2022-10-17T09:59:29.868Z,1008.13
2022-10-17T10:00:29.878Z,1008.16
2022-10-17T10:01:29.829Z,1008.10
2022-10-17T10:02:29.935Z,1008.12
2022-10-17T10:03:29.890Z,1008.16
2022-10-17T10:04:30.376Z,1008.16
2022-10-17T10:05:30.780Z,1008.16
2022-10-17T10:06:29.760Z,1008.20
2022-10-17T10:07:29.750Z,1008.19
2022-10-17T10:08:29.731Z,1008.18
2022-10-17T10:09:29.741Z,1008.19
2022-10-17T10:10:29.711Z,1008.19
2022-10-17T10:11:29.691Z,1008.18
2022-10-17T10:12:30.082Z,1008.17
2022-10-17T10:13:29.671Z,1008.21
2022-10-17T10:14:29.663Z,1008.22
2022-10-17T10:15:29.646Z,1008.22
2022-10-17T10:16:29.635Z,1008.17
2022-10-17T10:17:29.632Z,1008.18
2022-10-17T10:19:29.603Z,1008.23
2022-10-17T10:20:29.585Z,1008.20
2022-10-17T10:21:29.711Z,1008.19
2022-10-17T10:22:29.749Z,1008.18
2022-10-17T10:23:29.543Z,1008.17
2022-10-17T10:24:31.110Z,1008.16
2022-10-17T10:25:29.513Z,1008.20
2022-10-17T10:26:29.501Z,1008.20
2022-10-17T10:27:29.547Z,1008.20
2022-10-17T10:28:29.508Z,1008.16
2022-10-17T10:29:29.477Z,1008.16
2022-10-17T10:30:29.447Z,1008.12
2022-10-17T10:31:29.438Z,1008.10
2022-10-17T10:32:29.731Z,1008.17
2022-10-17T10:33:29.417Z,1008.16
2022-10-17T10:34:29.426Z,1008.15
2022-10-17T10:35:29.380Z,1008.15
2022-10-17T10:36:29.384Z,1008.11
2022-10-17T10:37:29.723Z,1008.15
2022-10-17T10:38:29.375Z,1008.11
2022-10-17T10:39:29.397Z,1008.11
2022-10-17T10:40:29.309Z,1008.08
2022-10-17T10:41:29.308Z,1008.11
2022-10-17T10:42:29.298Z,1008.08
2022-10-17T10:43:29.299Z,1008.04
2022-10-17T10:44:29.301Z,1008.06
2022-10-17T10:45:47.387Z,1008.08
2022-10-17T10:46:30.311Z,1008.06
2022-10-17T10:47:29.441Z,1008.04
2022-10-17T10:48:29.221Z,1007.99
2022-10-17T10:49:29.202Z,1008.00
2022-10-17T10:50:29.190Z,1007.99
2022-10-17T10:51:29.182Z,1007.98
2022-10-17T10:52:29.161Z,1008.00
2022-10-17T10:53:31.757Z,1008.00
2022-10-17T10:54:30.191Z,1008.02
2022-10-17T10:55:29.131Z,1007.94
2022-10-17T10:56:29.200Z,1007.97
2022-10-17T10:57:29.527Z,1007.94
2022-10-17T10:58:29.091Z,1007.96
2022-10-17T10:59:29.072Z,1007.94
2022-10-17T11:00:29.121Z,1007.95
2022-10-17T11:01:29.051Z,1007.93
2022-10-17T11:02:33.088Z,1007.93
2022-10-17T11:03:29.173Z,1007.94
2022-10-17T11:04:29.002Z,1007.91
2022-10-17T11:05:28.991Z,1007.92
2022-10-17T11:06:29.082Z,1007.96
2022-10-17T11:07:29.182Z,1007.92
2022-10-17T11:08:28.963Z,1007.97
2022-10-17T11:09:31.423Z,1007.96
2022-10-17T11:10:28.934Z,1007.92
2022-10-17T11:11:28.915Z,1007.97
2022-10-17T11:12:28.903Z,1007.92
2022-10-17T11:13:28.908Z,1007.91
2022-10-17T11:14:28.883Z,1007.91
2022-10-17T11:15:28.864Z,1007.92
2022-10-17T11:16:28.893Z,1007.92
2022-10-17T11:17:29.109Z,1007.91
2022-10-17T11:18:28.823Z,1007.90
2022-10-17T11:19:28.816Z,1007.88
2022-10-17T11:20:28.806Z,1007.93
2022-10-17T11:21:28.854Z,1007.91
2022-10-17T11:22:29.414Z,1007.90
2022-10-17T11:23:28.764Z,1007.87
2022-10-17T11:24:28.745Z,1007.89
2022-10-17T11:25:28.755Z,1007.84
2022-10-17T11:26:28.769Z,1007.81
2022-10-17T11:27:28.727Z,1007.82
2022-10-17T11:28:28.731Z,1007.87
2022-10-17T11:29:28.707Z,1007.83
2022-10-17T11:30:28.700Z,1007.81
2022-10-17T11:31:28.676Z,1007.86
2022-10-17T11:32:28.835Z,1007.84
2022-10-17T11:33:28.646Z,1007.80
2022-10-17T11:34:28.624Z,1007.76
2022-10-17T11:35:28.605Z,1007.74
2022-10-17T11:36:28.586Z,1007.77
2022-10-17T11:37:28.597Z,1007.75
2022-10-17T11:38:28.567Z,1007.76
2022-10-17T11:39:28.556Z,1007.76
2022-10-17T11:40:28.537Z,1007.78
2022-10-17T11:41:28.537Z,1007.77
2022-10-17T11:42:28.849Z,1007.79
2022-10-17T11:43:28.499Z,1007.73
2022-10-17T11:44:28.497Z,1007.73
2022-10-17T11:45:28.477Z,1007.74
2022-10-17T11:46:28.457Z,1007.76
2022-10-17T11:47:28.468Z,1007.68
2022-10-17T11:48:28.443Z,1007.71
2022-10-17T11:49:28.452Z,1007.70
2022-10-17T11:52:54.826Z,1007.69
2022-10-17T11:53:29.386Z,1007.76
2022-10-17T11:54:28.359Z,1007.76
2022-10-17T11:55:28.349Z,1007.72
2022-10-17T11:56:28.330Z,1007.71
2022-10-17T11:57:28.350Z,1007.67
2022-10-17T11:59:28.311Z,1007.66
2022-10-17T12:00:28.310Z,1007.67
2022-10-17T12:01:28.260Z,1007.68
2022-10-17T12:02:28.613Z,1007.65
2022-10-17T12:03:28.240Z,1007.68
2022-10-17T12:04:28.250Z,1007.59
2022-10-17T12:05:28.222Z,1007.61
2022-10-17T12:06:29.434Z,1007.59
2022-10-17T12:07:28.591Z,1007.61
2022-10-17T12:08:30.563Z,1007.58
2022-10-17T12:09:28.161Z,1007.56
2022-10-17T12:10:28.160Z,1007.57
2022-10-17T12:11:28.169Z,1007.54